KRDU METAR and TAF | Updated Today

KRDU METAR

Raleigh Durham International Airport

Observation time: 43 min. ago

KRDU 260051Z 10004KT 10SM FEW075 SCT250 28/16 A3011 RMK AO2 SLP190 T02830156

Need help? Read our tutorial on how to read METARs or read the parsed version below.

Raleigh Durham International Airport (KRDU) METAR

  • Weather conditions on Sun, 26 Jun 2022 00:51:00 +0000 (43 min. ago):
  • Present conditions: Dry
  • Clouds: A few at 2286 meters; scattered at 7620 meters
  • Visibility: 16093 meters
  • Wind: 100 degrees at 4 knots
  • Temperature: 28 celsius
  • Dew point: 16 celsius
  • Pressure: 30.11 inHg
  • Remarks: AO2 SLP190 T02830156


Useful to know...

KRDU TAF

Raleigh Durham International Airport

KRDU 252340Z 2600/2624 18005KT P6SM FEW250
Observation time: 1:54 hr. ago
Need help? Read our tutorial on how to read TAFs or read the parsed version below.

Parsed version of TAF for Raleigh Durham International Airport (KRDU)

  • From 26 June at 00:00 UTC, to day 26 of the month at 24:00 UTC
  • Clouds: A few at 7620 meters
  • Wind: 180 degrees at 5

Airports near KRDU

KLHZ Weather
Region: Louisburg

Triangle North Executive Airport

Not found in our database
KRWI Weather
IATA: RWI
Region: Rocky Mount

Rocky Mount Wilson Regional Airport

Found in our database